Terminal Aerodrome Forecast
Issued by NWS

Current Version | Previous Version | Text Only | Print | Product List | Glossary On
Versions: 1 2 3 4 5 6 7 8 9 10 11 12 13
152
FTUS44 KJAN 270520
TAFGTR
TAF
KGTR 270520Z 2706/2806 36006KT P6SM SCT100 BKN250
     FM270800 36006KT P6SM BKN015
     FM271600 VRB04KT P6SM SKC=

USA.gov is the U.S. government's official web portal to all federal, state and local government web resources and services.